Time,TemperatureF,DewpointF,PressureIn,WindDirection,WindDirectionDegrees,WindSpeedMPH,WindSpeedGustMPH,Humidity,HourlyPrecipIn,Conditions,Clouds,dailyrainin,SoftwareType,DateUTC
2013-01-05 12:43:00,37.2,36.7,29.04,NW,315,0.0,4.2,98,0.00,CLR,,0.00,WeatherDisplay:10.37,2013-01-05 17:43:00,
2013-01-05 12:44:00,37.2,36.7,29.04,NW,315,0.0,4.2,98,0.00,CLR,,0.00,WeatherDisplay:10.37,2013-01-05 17:44:00,
2013-01-05 12:49:00,38.8,20.3,29.25,NNE,22,5.6,5.8,47,0.00,CLR,,0.00,WeatherDisplay:10.37,2013-01-05 17:49:00,
2013-01-05 12:54:00,38.3,19.8,29.25,NW,315,4.8,5.8,47,0.00,CLR,,0.00,WeatherDisplay:10.37,2013-01-05 17:54:00,
2013-01-05 12:59:00,37.4,20.0,29.25,WNW,292,6.9,8.1,49,0.00,CLR,,0.00,WeatherDisplay:10.37,2013-01-05 17:59:00,
2013-01-05 13:04:00,37.2,18.8,29.25,West,270,4.2,4.6,47,0.00,CLR,,0.00,WeatherDisplay:10.37,2013-01-05 18:04:00,
2013-01-05 13:09:00,38.3,20.3,29.25,NW,315,3.8,5.8,48,0.00,CLR,,0.00,WeatherDisplay:10.37,2013-01-05 18:09:00,
2013-01-05 13:14:00,38.3,19.8,29.25,NW,315,4.4,5.8,47,0.01,RA,,0.01,WeatherDisplay:10.37,2013-01-05 18:14:00,
2013-01-05 13:19:00,37.9,19.9,29.25,NE,45,5.0,5.8,48,0.01,RA,,0.01,WeatherDisplay:10.37,2013-01-05 18:19:00,
2013-01-05 13:24:00,37.6,19.2,29.25,NE,45,5.9,10.4,47,0.01,CLR,,0.01,WeatherDisplay:10.37,2013-01-05 18:24:00,
2013-01-05 13:29:00,36.9,19.0,29.25,NNW,338,6.4,9.2,48,0.01,CLR,,0.01,WeatherDisplay:10.37,2013-01-05 18:29:00,
2013-01-05 13:34:00,37.2,19.3,29.25,NW,315,8.9,10.4,48,0.01,CLR,,0.01,WeatherDisplay:10.37,2013-01-05 18:34:00,
2013-01-05 13:39:00,36.9,18.5,29.25,NNE,22,8.4,10.4,47,0.01,CLR,,0.01,WeatherDisplay:10.37,2013-01-05 18:39:00,
2013-01-05 13:44:00,36.3,18.5,29.25,NW,315,5.8,7.3,48,0.01,CLR,,0.01,WeatherDisplay:10.37,2013-01-05 18:44:00,
2013-01-05 13:49:00,36.1,18.8,29.25,WNW,292,5.2,7.3,49,0.01,CLR,,0.01,WeatherDisplay:10.37,2013-01-05 18:49:00,
2013-01-05 13:54:00,36.9,19.5,29.25,WNW,292,5.7,9.2,49,0.01,CLR,,0.01,WeatherDisplay:10.37,2013-01-05 18:54:00,
2013-01-05 13:59:00,36.9,19.5,29.25,WSW,248,7.6,9.2,49,0.01,CLR,,0.01,WeatherDisplay:10.37,2013-01-05 18:59:00,
2013-01-05 14:04:00,36.3,19.4,29.25,NE,45,3.8,5.8,50,0.01,CLR,,0.01,WeatherDisplay:10.37,2013-01-05 19:04:00,
2013-01-05 14:09:00,36.3,19.9,29.25,NE,45,3.6,4.6,51,0.01,CLR,,0.01,WeatherDisplay:10.37,2013-01-05 19:09:00,
2013-01-05 14:14:00,35.4,19.0,29.25,NNW,338,4.0,4.7,51,0.00,CLR,,0.01,WeatherDisplay:10.37,2013-01-05 19:14:00,
2013-01-05 14:19:00,34.7,18.9,29.25,South,180,4.3,6.9,52,0.00,CLR,,0.01,WeatherDisplay:10.37,2013-01-05 19:19:00,
2013-01-05 14:24:00,34.9,19.0,29.25,North,360,2.8,3.5,52,0.00,CLR,,0.01,WeatherDisplay:10.37,2013-01-05 19:24:00,
2013-01-05 14:29:00,34.7,18.9,29.24,NNE,22,7.2,9.2,52,0.00,CLR,,0.01,WeatherDisplay:10.37,2013-01-05 19:29:00,
2013-01-05 14:34:00,34.5,19.1,29.24,NNE,22,4.5,5.8,53,0.00,CLR,,0.01,WeatherDisplay:10.37,2013-01-05 19:34:00,
2013-01-05 14:39:00,34.2,19.3,29.25,NNE,22,2.8,3.5,54,0.00,CLR,,0.01,WeatherDisplay:10.37,2013-01-05 19:39:00,
2013-01-05 14:44:00,33.8,18.9,29.25,NNE,22,1.6,2.3,54,0.00,CLR,,0.01,WeatherDisplay:10.37,2013-01-05 19:44:00,
2013-01-05 14:49:00,33.6,19.1,29.25,ESE,112,3.2,3.5,55,0.00,CLR,,0.01,WeatherDisplay:10.37,2013-01-05 19:49:00,
2013-01-05 14:54:00,33.8,18.9,29.24,ENE,68,5.1,10.4,54,0.00,CLR,,0.01,WeatherDisplay:10.37,2013-01-05 19:54:00,
2013-01-05 14:59:00,33.8,18.5,29.24,SE,135,3.8,5.8,53,0.00,CLR,,0.01,WeatherDisplay:10.37,2013-01-05 19:59:00,
2013-01-05 15:04:00,33.6,18.7,29.24,NNE,22,3.0,4.6,54,0.00,CLR,,0.01,WeatherDisplay:10.37,2013-01-05 20:04:00,
2013-01-05 15:09:00,33.4,19.4,29.24,NNE,22,1.2,2.3,56,0.00,CLR,,0.01,WeatherDisplay:10.37,2013-01-05 20:09:00,
2013-01-05 15:14:00,33.4,20.2,29.24,NNE,22,0.0,0.0,58,0.00,CLR,,0.01,WeatherDisplay:10.37,2013-01-05 20:14:00,
2013-01-05 15:19:00,32.7,19.9,29.25,NNE,22,0.0,0.0,59,0.00,CLR,,0.01,WeatherDisplay:10.37,2013-01-05 20:19:00,
2013-01-05 15:24:00,31.8,21.0,29.25,NNE,22,3.5,4.6,64,0.00,CLR,,0.01,WeatherDisplay:10.37,2013-01-05 20:24:00,
2013-01-05 15:29:00,31.6,20.1,29.25,NNW,338,5.2,6.9,62,0.00,CLR,,0.01,WeatherDisplay:10.37,2013-01-05 20:29:00,
2013-01-05 15:34:00,31.6,18.9,29.25,NW,315,5.0,5.8,59,0.00,CLR,,0.01,WeatherDisplay:10.37,2013-01-05 20:34:00,
2013-01-05 15:39:00,31.8,18.7,29.25,NW,315,5.2,6.9,58,0.00,CLR,,0.01,WeatherDisplay:10.37,2013-01-05 20:39:00,
2013-01-05 15:44:00,31.8,19.5,29.25,NNE,22,4.7,4.7,60,0.00,CLR,,0.01,WeatherDisplay:10.37,2013-01-05 20:44:00,
2013-01-05 15:49:00,31.8,19.5,29.25,NNE,22,4.7,4.7,60,0.00,CLR,,0.01,WeatherDisplay:10.37,2013-01-05 20:49:00,
2013-01-05 15:54:00,31.6,18.9,29.26,NNE,22,1.5,2.3,59,0.00,CLR,,0.01,WeatherDisplay:10.37,2013-01-05 20:54:00,
2013-01-05 15:59:00,31.3,19.0,29.26,NNE,22,2.0,2.7,60,0.00,CLR,,0.01,WeatherDisplay:10.37,2013-01-05 20:59:00,
2013-01-05 16:04:00,30.7,20.0,29.26,NNE,22,1.1,2.3,64,0.00,CLR,,0.01,WeatherDisplay:10.37,2013-01-05 21:04:00,
2013-01-05 16:09:00,30.0,20.4,29.26,NNE,22,0.0,0.0,67,0.00,CLR,,0.01,WeatherDisplay:10.37,2013-01-05 21:09:00,
2013-01-05 16:14:00,29.8,19.1,29.26,NNE,22,0.0,0.0,64,0.00,CLR,,0.01,WeatherDisplay:10.37,2013-01-05 21:14:00,
2013-01-05 16:19:00,29.1,19.5,29.27,NNE,22,0.9,2.3,67,0.00,CLR,,0.01,WeatherDisplay:10.37,2013-01-05 21:19:00,
2013-01-05 16:24:00,28.4,20.2,29.27,NNE,22,3.7,4.6,71,0.00,CLR,,0.01,WeatherDisplay:10.37,2013-01-05 21:24:00,
2013-01-05 16:29:00,28.0,20.1,29.27,NNE,22,2.7,3.5,72,0.00,CLR,,0.01,WeatherDisplay:10.37,2013-01-05 21:29:00,
2013-01-05 16:34:00,27.5,20.6,29.27,NNE,22,2.3,2.3,75,0.00,CLR,,0.01,WeatherDisplay:10.37,2013-01-05 21:34:00,
2013-01-05 16:39:00,27.3,21.9,29.27,NNE,22,2.4,3.7,80,0.00,CLR,,0.01,WeatherDisplay:10.37,2013-01-05 21:39:00,
2013-01-05 16:44:00,26.8,21.5,29.27,NNE,22,2.8,3.5,80,0.00,CLR,,0.01,WeatherDisplay:10.37,2013-01-05 21:44:00,
2013-01-05 16:49:00,26.6,21.8,29.27,NNE,22,1.0,1.1,82,0.00,CLR,,0.01,WeatherDisplay:10.37,2013-01-05 21:49:00,
2013-01-05 16:54:00,26.1,22.2,29.27,NNE,22,0.0,0.0,85,0.00,CLR,,0.01,WeatherDisplay:10.37,2013-01-05 21:54:00,
2013-01-05 16:59:00,24.6,20.2,29.27,NNE,22,0.0,0.0,83,0.00,CLR,,0.01,WeatherDisplay:10.37,2013-01-05 21:59:00,
2013-01-05 17:04:00,24.3,20.2,29.28,NNE,22,0.0,0.0,84,0.00,CLR,,0.01,WeatherDisplay:10.37,2013-01-05 22:04:00,
2013-01-05 17:09:00,23.9,19.2,29.28,NNE,22,0.0,0.0,82,0.00,CLR,,0.01,WeatherDisplay:10.37,2013-01-05 22:09:00,
2013-01-05 17:14:00,23.5,21.0,29.28,NNE,22,0.0,0.0,90,0.00,CLR,,0.01,WeatherDisplay:10.37,2013-01-05 22:14:00,
2013-01-05 17:19:00,23.4,22.9,29.28,NNE,22,2.2,2.3,98,0.00,CLR,,0.01,WeatherDisplay:10.37,2013-01-05 22:19:00,
2013-01-05 17:24:00,23.5,23.0,29.28,NNE,22,1.8,2.3,98,0.00,CLR,,0.01,WeatherDisplay:10.37,2013-01-05 22:24:00,
2013-01-05 17:29:00,23.4,22.9,29.28,NNE,22,2.7,3.5,98,0.00,CLR,,0.01,WeatherDisplay:10.37,2013-01-05 22:29:00,
2013-01-05 17:34:00,23.4,22.9,29.28,NNE,22,0.0,0.0,98,0.00,CLR,,0.01,WeatherDisplay:10.37,2013-01-05 22:34:00,
2013-01-05 17:39:00,22.6,21.1,29.28,NNE,22,0.0,0.0,94,0.00,CLR,,0.01,WeatherDisplay:10.37,2013-01-05 22:39:00,
2013-01-05 17:44:00,22.1,19.6,29.29,NNE,22,0.0,0.0,90,0.00,CLR,,0.01,WeatherDisplay:10.37,2013-01-05 22:44:00,
2013-01-05 17:49:00,21.6,20.6,29.29,NNE,22,1.4,2.3,96,0.00,CLR,,0.01,WeatherDisplay:10.37,2013-01-05 22:49:00,
2013-01-05 17:54:00,21.4,20.9,29.28,NNE,22,1.4,1.4,98,0.00,CLR,,0.01,WeatherDisplay:10.37,2013-01-05 22:54:00,
2013-01-05 17:59:00,21.2,20.7,29.28,NNE,22,0.0,0.0,98,0.00,CLR,,0.01,WeatherDisplay:10.37,2013-01-05 22:59:00,
2013-01-05 18:04:00,20.8,20.3,29.30,NNE,22,0.0,0.0,98,0.00,CLR,,0.01,WeatherDisplay:10.37,2013-01-05 23:04:00,
2013-01-05 18:09:00,20.7,20.2,29.30,NNE,22,0.0,0.0,98,0.00,CLR,,0.01,WeatherDisplay:10.37,2013-01-05 23:09:00,
2013-01-05 18:14:00,20.7,20.2,29.30,NNE,22,0.0,0.0,98,0.00,CLR,,0.01,WeatherDisplay:10.37,2013-01-05 23:14:00,
2013-01-05 18:19:00,20.1,19.6,29.30,NNE,22,0.0,0.0,98,0.00,CLR,,0.01,WeatherDisplay:10.37,2013-01-05 23:19:00,
2013-01-05 18:24:00,20.3,19.8,29.30,NNE,22,1.7,2.3,98,0.00,CLR,,0.01,WeatherDisplay:10.37,2013-01-05 23:24:00,
2013-01-05 18:29:00,20.1,19.6,29.31,NNE,22,1.7,1.7,98,0.00,CLR,,0.01,WeatherDisplay:10.37,2013-01-05 23:29:00,
2013-01-05 18:34:00,19.8,19.3,29.31,NNE,22,0.0,0.0,98,0.00,CLR,,0.01,WeatherDisplay:10.37,2013-01-05 23:34:00,
2013-01-05 18:39:00,19.6,19.1,29.32,NNE,22,0.0,0.0,98,0.00,CLR,,0.01,WeatherDisplay:10.37,2013-01-05 23:39:00,
2013-01-05 18:44:00,18.9,18.4,29.32,NNE,22,0.0,0.0,98,0.00,CLR,,0.01,WeatherDisplay:10.37,2013-01-05 23:44:00,
2013-01-05 18:49:00,18.9,18.4,29.32,NNE,22,0.0,0.0,98,0.00,CLR,,0.01,WeatherDisplay:10.37,2013-01-05 23:49:00,
2013-01-05 18:54:00,18.7,18.2,29.31,NNE,22,0.0,0.0,98,0.00,CLR,,0.01,WeatherDisplay:10.37,2013-01-05 23:54:00,
2013-01-05 18:59:00,18.7,18.2,29.31,NNE,22,0.0,0.0,98,0.00,CLR,,0.01,WeatherDisplay:10.37,2013-01-05 23:59:00,
2013-01-05 19:04:00,18.7,18.2,29.31,NNE,22,0.0,0.0,98,0.00,CLR,,0.01,WeatherDisplay:10.37,2013-01-06 00:04:00,
2013-01-05 19:09:00,18.7,18.2,29.31,NNE,22,0.0,0.0,98,0.00,CLR,,0.01,WeatherDisplay:10.37,2013-01-06 00:09:00,
2013-01-05 19:14:00,18.3,17.8,29.31,NNE,22,0.0,0.0,98,0.00,CLR,,0.01,WeatherDisplay:10.37,2013-01-06 00:14:00,
2013-01-05 19:19:00,18.1,17.6,29.31,NNE,22,0.0,0.0,98,0.00,CLR,,0.01,WeatherDisplay:10.37,2013-01-06 00:19:00,
2013-01-05 19:24:00,18.1,17.6,29.31,NNE,22,0.0,0.0,98,0.00,CLR,,0.01,WeatherDisplay:10.37,2013-01-06 00:24:00,
2013-01-05 19:29:00,17.6,17.1,29.31,NNE,22,0.0,0.0,98,0.00,CLR,,0.01,WeatherDisplay:10.37,2013-01-06 00:29:00,
2013-01-05 19:34:00,17.4,16.9,29.31,NNE,22,0.0,0.0,98,0.00,CLR,,0.01,WeatherDisplay:10.37,2013-01-06 00:34:00,
2013-01-05 19:39:00,17.1,16.6,29.31,NNE,22,0.0,0.0,98,0.00,CLR,,0.01,WeatherDisplay:10.37,2013-01-06 00:39:00,
2013-01-05 19:44:00,17.1,16.6,29.31,NNE,22,0.3,1.1,98,0.00,CLR,,0.01,WeatherDisplay:10.37,2013-01-06 00:44:00,
2013-01-05 19:49:00,16.9,16.4,29.31,NNE,22,0.4,1.7,98,0.00,CLR,,0.01,WeatherDisplay:10.37,2013-01-06 00:49:00,
2013-01-05 19:54:00,16.7,16.2,29.31,NNE,22,0.0,0.0,98,0.00,CLR,,0.01,WeatherDisplay:10.37,2013-01-06 00:54:00,
2013-01-05 19:59:00,16.5,16.0,29.31,NNE,22,0.0,0.0,98,0.00,CLR,,0.01,WeatherDisplay:10.37,2013-01-06 00:59:00,
2013-01-05 20:04:00,16.7,16.2,29.30,NNE,22,2.2,2.3,98,0.00,CLR,,0.01,WeatherDisplay:10.37,2013-01-06 01:04:00,
2013-01-05 20:09:00,16.5,16.0,29.30,NNE,22,0.0,1.1,98,0.00,CLR,,0.01,WeatherDisplay:10.37,2013-01-06 01:09:00,
2013-01-05 20:14:00,16.3,15.8,29.30,NNE,22,0.0,0.0,98,0.00,CLR,,0.01,WeatherDisplay:10.37,2013-01-06 01:14:00,
2013-01-05 20:19:00,16.2,15.7,29.31,NNE,22,0.8,1.1,98,0.00,CLR,,0.01,WeatherDisplay:10.37,2013-01-06 01:19:00,
2013-01-05 20:24:00,16.0,15.5,29.31,NNE,22,0.1,1.7,98,0.00,CLR,,0.01,WeatherDisplay:10.37,2013-01-06 01:24:00,
2013-01-05 20:29:00,15.8,15.3,29.32,NNE,22,0.0,0.0,98,0.00,CLR,,0.01,WeatherDisplay:10.37,2013-01-06 01:29:00,
2013-01-05 20:34:00,15.8,15.3,29.32,NNE,22,1.7,1.7,98,0.00,CLR,,0.01,WeatherDisplay:10.37,2013-01-06 01:34:00,
2013-01-05 20:39:00,16.2,15.7,29.31,NNE,22,3.2,3.5,98,0.00,CLR,,0.01,WeatherDisplay:10.37,2013-01-06 01:39:00,
2013-01-05 20:44:00,16.7,16.2,29.31,NNE,22,2.8,3.5,98,0.00,CLR,,0.01,WeatherDisplay:10.37,2013-01-06 01:44:00,
2013-01-05 20:49:00,16.9,16.4,29.31,NNE,22,1.1,1.1,98,0.00,CLR,,0.01,WeatherDisplay:10.37,2013-01-06 01:49:00,
2013-01-05 20:54:00,16.7,16.2,29.32,NNE,22,1.7,1.7,98,0.00,CLR,,0.01,WeatherDisplay:10.37,2013-01-06 01:54:00,
2013-01-05 20:59:00,16.3,15.8,29.32,NNE,22,0.0,0.0,98,0.00,CLR,,0.01,WeatherDisplay:10.37,2013-01-06 01:59:00,
2013-01-05 21:04:00,16.3,15.8,29.31,NNE,22,2.2,2.3,98,0.00,CLR,,0.01,WeatherDisplay:10.37,2013-01-06 02:04:00,
2013-01-05 21:09:00,16.5,16.0,29.31,NNE,22,0.3,1.1,98,0.00,CLR,,0.01,WeatherDisplay:10.37,2013-01-06 02:09:00,
2013-01-05 21:14:00,16.5,16.0,29.31,NNE,22,0.0,0.0,98,0.00,CLR,,0.01,WeatherDisplay:10.37,2013-01-06 02:14:00,
2013-01-05 21:19:00,16.5,16.0,29.31,NNE,22,0.0,0.0,98,0.00,CLR,,0.01,WeatherDisplay:10.37,2013-01-06 02:19:00,
2013-01-05 21:24:00,16.5,16.0,29.31,NNE,22,2.5,2.5,98,0.00,CLR,,0.01,WeatherDisplay:10.37,2013-01-06 02:24:00,
2013-01-05 21:29:00,16.5,16.0,29.30,NNE,22,0.1,1.1,98,0.00,CLR,,0.01,WeatherDisplay:10.37,2013-01-06 02:29:00,
2013-01-05 21:34:00,16.3,15.8,29.30,NNE,22,0.0,0.0,98,0.00,CLR,,0.01,WeatherDisplay:10.37,2013-01-06 02:34:00,
2013-01-05 21:39:00,16.2,15.7,29.30,NNE,22,0.0,0.0,98,0.00,CLR,,0.01,WeatherDisplay:10.37,2013-01-06 02:39:00,
2013-01-05 21:44:00,16.2,15.7,29.31,NNE,22,0.0,0.0,98,0.00,CLR,,0.01,WeatherDisplay:10.37,2013-01-06 02:44:00,
2013-01-05 21:49:00,16.0,15.5,29.31,NNE,22,0.0,0.0,98,0.00,CLR,,0.01,WeatherDisplay:10.37,2013-01-06 02:49:00,
2013-01-05 21:54:00,16.0,15.5,29.31,NNE,22,1.7,1.7,98,0.00,CLR,,0.01,WeatherDisplay:10.37,2013-01-06 02:54:00,
2013-01-05 21:59:00,16.0,15.5,29.31,NNE,22,0.0,1.1,98,0.00,CLR,,0.01,WeatherDisplay:10.37,2013-01-06 02:59:00,
2013-01-05 22:04:00,16.0,15.5,29.30,NNE,22,1.8,2.3,98,0.00,CLR,,0.01,WeatherDisplay:10.37,2013-01-06 03:04:00,
2013-01-05 22:09:00,16.0,15.5,29.30,NNE,22,0.0,0.0,98,0.00,CLR,,0.01,WeatherDisplay:10.37,2013-01-06 03:09:00,
2013-01-05 22:14:00,15.8,15.3,29.30,NNE,22,1.7,1.7,98,0.00,CLR,,0.01,WeatherDisplay:10.37,2013-01-06 03:14:00,
2013-01-05 22:19:00,15.8,15.3,29.30,NNE,22,0.0,0.0,98,0.00,CLR,,0.01,WeatherDisplay:10.37,2013-01-06 03:19:00,
2013-01-05 22:24:00,15.8,15.3,29.30,NNE,22,0.0,0.0,98,0.00,CLR,,0.01,WeatherDisplay:10.37,2013-01-06 03:24:00,
2013-01-05 22:29:00,15.8,15.3,29.30,NNE,22,2.2,2.7,98,0.00,CLR,,0.01,WeatherDisplay:10.37,2013-01-06 03:29:00,
2013-01-05 22:34:00,15.8,15.3,29.30,NNE,22,1.8,2.3,98,0.00,CLR,,0.01,WeatherDisplay:10.37,2013-01-06 03:34:00,
2013-01-05 22:39:00,15.8,15.3,29.30,NNE,22,0.0,0.0,98,0.00,CLR,,0.01,WeatherDisplay:10.37,2013-01-06 03:39:00,
2013-01-05 22:44:00,15.6,15.1,29.29,NNE,22,0.0,0.0,98,0.00,CLR,,0.01,WeatherDisplay:10.37,2013-01-06 03:44:00,
2013-01-05 22:49:00,15.4,14.9,29.29,NNE,22,1.6,2.3,98,0.00,CLR,,0.01,WeatherDisplay:10.37,2013-01-06 03:49:00,
2013-01-05 22:54:00,15.3,14.8,29.29,NNE,22,0.0,0.0,98,0.00,CLR,,0.01,WeatherDisplay:10.37,2013-01-06 03:54:00,
2013-01-05 22:59:00,15.3,14.8,29.29,NNE,22,0.2,2.7,98,0.00,CLR,,0.01,WeatherDisplay:10.37,2013-01-06 03:59:00,
2013-01-05 23:04:00,15.3,14.8,29.29,NNE,22,1.5,1.7,98,0.00,CLR,,0.01,WeatherDisplay:10.37,2013-01-06 04:04:00,
2013-01-05 23:09:00,15.3,14.8,29.29,NNE,22,2.7,2.7,98,0.00,CLR,,0.01,WeatherDisplay:10.37,2013-01-06 04:09:00,
2013-01-05 23:14:00,15.3,14.8,29.29,NNE,22,2.6,2.6,98,0.00,CLR,,0.01,WeatherDisplay:10.37,2013-01-06 04:14:00,
2013-01-05 23:19:00,15.1,14.6,29.28,NNE,22,0.0,0.0,98,0.00,CLR,,0.01,WeatherDisplay:10.37,2013-01-06 04:19:00,
2013-01-05 23:24:00,14.9,14.4,29.28,NNE,22,0.0,0.0,98,0.00,CLR,,0.01,WeatherDisplay:10.37,2013-01-06 04:24:00,
2013-01-05 23:29:00,14.5,14.0,29.28,NNE,22,0.0,0.0,98,0.00,CLR,,0.01,WeatherDisplay:10.37,2013-01-06 04:29:00,
2013-01-05 23:34:00,14.5,14.0,29.28,NNE,22,0.0,0.0,98,0.00,CLR,,0.01,WeatherDisplay:10.37,2013-01-06 04:34:00,
2013-01-05 23:39:00,14.5,14.0,29.28,NNE,22,2.5,3.5,98,0.00,CLR,,0.01,WeatherDisplay:10.37,2013-01-06 04:39:00,
2013-01-05 23:44:00,14.4,13.9,29.28,NNE,22,0.0,0.0,98,0.00,CLR,,0.01,WeatherDisplay:10.37,2013-01-06 04:44:00,
2013-01-05 23:49:00,14.0,13.5,29.28,NNE,22,0.0,0.0,98,0.00,CLR,,0.01,WeatherDisplay:10.37,2013-01-06 04:49:00,
2013-01-05 23:54:00,14.0,13.5,29.27,NNE,22,2.2,2.3,98,0.00,CLR,,0.01,WeatherDisplay:10.37,2013-01-06 04:54:00,
2013-01-05 23:59:00,14.2,13.7,29.27,NNE,22,2.0,2.3,98,0.00,CLR,,0.01,WeatherDisplay:10.37,2013-01-06 04:59:00,